Abbotsford Airport
CYXX : now visible

Aeroporto :











RITROVATECI SU...

 
LOGIN :

Iscrizione | Disclaimer

   EN    FR    IT 

 









Sommario :    VFR   VFR Marginale   IFR   IFR Intensivo   IFR Molto Intensivo
Visibilità : 
Base nubi : 
>= 8 km
>= 3000ft
5 / 8 km
1000 / 3000 ft
1500m / 5 km
500 / 1000 ft
800 / 1500m
200 / 500 ft
< 800m
< 200 ft
Simboli :   Temporali  Nebbia  Neve Forte  Precipitazioni Forti  Vento > 20 kt






- Altitudine del aeroporto : 195 ft
- Codice IATA : YXX


CYXX - Abbotsford

ULTIMO METAR :
  • 051800Z 07007KT 30SM FEW220 FEW260 06/01 A3010 RMK CI1CI1 CI TR SLP195

METARs OBSOLETI :
  • 051700Z 05005KT 30SM FEW260 04/01 A3012 RMK CI2 SLP202
  • 051600Z VRB02KT 30SM FEW200 BKN240 00/M01 A3011 RMK CI1CI4 SLP198
  • 051500Z 36004KT 30SM BKN240 02/M01 A3010 RMK CI5 SLP197

TAF TAF CYXX
Valido dal 05 a 18 ore il 06 a 18 ore UTC


051738Z 0518/0618 05006KT P6SM SCT260
FM060900 05008KT P6SM SCT030 BKN060
TEMPO 0609/0618 P6SM -SHRA BKN030 OVC060 RMK NXT FCST BY 060000Z
FIR CZVR / America del Nord



MetMap, La meteo Aeronautica in un colpo d'occhio ! - Copyright ORBIFLY Dicembre 2007 - Disclaimer

ORBIFLY MET'MAP TEAM :

Programmazione e sviluppo : Alexandra Zaïnal
Concezione : Baudouin d'Aumeries
Aiuto per la programmazione : Marc-Olivier Méhu
Supporto tecnico e logistico : Manuel Goepfert
Aiuto per la traduzione : Arnaldo La Scala

Contatto : metmap@orbifly.com




FONTI E CREDITI :

   NOAA       Earth
Advisory